Time;durP1;ratioP1;P1;durP2;ratioP2;P2;SDS_P1;SDS_P2;PMS_P1;PMS_P2;Temp;Humidity;BMP_temperature;BMP_pressure;BME280_temperature;BME280_humidity;BME280_pressure;Samples;Min_cycle;Max_cycle;Signal;HPM_P1;HPM_P2
2021/12/20 00:01:46;;;;;;;4.07;1.60;;;19.60;71.50;;;;;;5116866;28;20199;-21
2021/12/20 00:04:11;;;;;;;3.37;1.70;;;19.60;72.10;;;;;;5117950;28;20228;-19
2021/12/20 00:06:37;;;;;;;1.60;1.43;;;19.60;72.50;;;;;;5116789;28;20215;-18
2021/12/20 00:09:04;;;;;;;1.97;1.47;;;19.50;72.70;;;;;;5117387;28;20192;-20
2021/12/20 00:11:30;;;;;;;1.87;1.60;;;19.50;73.20;;;;;;5100263;28;20178;-21
2021/12/20 00:13:55;;;;;;;3.67;1.70;;;19.40;73.50;;;;;;5099201;28;20202;-21
2021/12/20 00:16:21;;;;;;;2.10;1.70;;;19.40;73.70;;;;;;5117291;28;20207;-17
2021/12/20 00:18:47;;;;;;;3.33;1.70;;;19.40;73.90;;;;;;5117148;28;20199;-18
2021/12/20 00:21:12;;;;;;;1.90;1.33;;;19.30;74.30;;;;;;5117671;28;20198;-22
2021/12/20 00:23:38;;;;;;;3.53;1.90;;;19.30;74.40;;;;;;5117756;28;20608;-24
2021/12/20 00:26:04;;;;;;;2.37;1.60;;;19.30;74.70;;;;;;5099697;28;20455;-20
2021/12/20 00:28:30;;;;;;;1.87;1.47;;;19.30;75.00;;;;;;5099670;28;20196;-19
2021/12/20 00:30:56;;;;;;;1.63;1.53;;;19.20;75.00;;;;;;5117264;28;20210;-19
2021/12/20 00:33:22;;;;;;;2.10;1.70;;;19.20;75.90;;;;;;5117876;28;20284;-22
2021/12/20 00:35:49;;;;;;;2.27;1.63;;;19.10;75.60;;;;;;5117134;28;20270;-22
2021/12/20 00:40:59;;;;;;;1.70;1.50;;;19.10;76.10;;;;;;5117713;28;20202;-19
2021/12/20 00:43:25;;;;;;;2.20;1.47;;;19.10;76.30;;;;;;5099735;28;20194;-18
2021/12/20 00:45:51;;;;;;;2.00;1.70;;;19.00;76.30;;;;;;5117407;28;20228;-18
2021/12/20 00:48:17;;;;;;;3.20;1.53;;;19.00;76.50;;;;;;5117426;28;20196;-21
2021/12/20 00:50:44;;;;;;;2.60;1.60;;;19.00;76.80;;;;;;5116709;28;20205;-20
2021/12/20 00:53:10;;;;;;;2.53;1.73;;;19.00;76.90;;;;;;5098673;28;20478;-20
2021/12/20 00:55:36;;;;;;;2.00;1.70;;;18.90;76.90;;;;;;5099131;28;20191;-21
2021/12/20 00:58:02;;;;;;;1.40;1.30;;;18.90;77.10;;;;;;5117468;28;20195;-18
2021/12/20 01:00:38;;;;;;;1.93;1.40;;;18.90;77.40;;;;;;5099864;28;20198;-20
2021/12/20 01:03:06;;;;;;;3.00;1.77;;;18.80;77.40;;;;;;5116815;28;20193;-20
2021/12/20 01:05:32;;;;;;;2.87;1.50;;;18.80;77.60;;;;;;5099426;28;20210;-22
2021/12/20 01:08:01;;;;;;;2.27;1.60;;;18.80;77.70;;;;;;5098501;28;20198;-19
2021/12/20 01:10:29;;;;;;;1.93;1.60;;;18.80;77.90;;;;;;5117116;28;20199;-20
2021/12/20 01:12:56;;;;;;;1.80;1.40;;;18.70;77.80;;;;;;5116317;28;20197;-22
2021/12/20 01:15:35;;;;;;;1.87;1.53;;;18.70;78.10;;;;;;5117057;28;20469;-20
2021/12/20 01:18:02;;;;;;;3.10;1.70;;;18.70;78.20;;;;;;5117542;28;20218;-20
2021/12/20 01:20:29;;;;;;;1.50;1.37;;;18.70;78.20;;;;;;5099669;28;20479;-21
2021/12/20 01:22:55;;;;;;;2.20;1.27;;;18.70;79.10;;;;;;5116997;28;20207;-19
2021/12/20 01:25:22;;;;;;;2.23;1.50;;;18.70;78.50;;;;;;5116934;28;20524;-21
2021/12/20 01:27:48;;;;;;;3.43;1.60;;;18.60;79.10;;;;;;5116746;28;20212;-20
2021/12/20 01:30:16;;;;;;;2.33;1.33;;;18.60;78.60;;;;;;5098858;28;20179;-20
2021/12/20 01:32:42;;;;;;;1.70;1.50;;;18.60;78.70;;;;;;5099291;28;20482;-21
2021/12/20 01:35:10;;;;;;;2.67;1.47;;;18.60;78.80;;;;;;5098562;28;20524;-21
2021/12/20 01:37:36;;;;;;;2.07;1.30;;;18.60;78.90;;;;;;5116286;28;20228;-21
2021/12/20 01:40:04;;;;;;;2.00;1.47;;;18.50;79.00;;;;;;5116093;28;20196;-20
2021/12/20 01:42:32;;;;;;;2.10;1.33;;;18.50;79.10;;;;;;5114793;28;20259;-21
2021/12/20 01:44:58;;;;;;;1.53;1.30;;;18.50;79.10;;;;;;5117243;28;20216;-21
2021/12/20 01:47:34;;;;;;;1.40;1.30;;;18.50;79.10;;;;;;5097614;28;20457;-20
2021/12/20 01:50:15;;;;;;;1.63;1.50;;;18.50;79.20;;;;;;5116167;28;20193;-19
2021/12/20 01:52:43;;;;;;;2.17;1.40;;;18.50;79.30;;;;;;5098855;28;20621;-20
2021/12/20 01:55:16;;;;;;;2.67;1.30;;;18.40;79.10;;;;;;5116738;28;20263;-17
2021/12/20 01:57:41;;;;;;;2.13;1.30;;;18.50;79.40;;;;;;5098746;28;20194;-19
2021/12/20 02:00:10;;;;;;;1.63;1.33;;;18.40;79.50;;;;;;5116193;28;20207;-23
2021/12/20 02:02:36;;;;;;;1.97;1.47;;;18.40;79.50;;;;;;5114939;28;20288;-21
2021/12/20 02:05:15;;;;;;;1.30;1.20;;;18.40;79.60;;;;;;5098515;28;20309;-20
2021/12/20 02:10:34;;;;;;;1.37;1.10;;;18.30;79.70;;;;;;5099069;28;20292;-21
2021/12/20 02:13:01;;;;;;;1.50;1.33;;;18.30;79.70;;;;;;5098798;28;20224;-20
2021/12/20 02:15:26;;;;;;;2.43;1.40;;;18.30;79.80;;;;;;5098226;28;20280;-19
2021/12/20 02:17:52;;;;;;;2.67;1.40;;;18.30;79.80;;;;;;5098114;28;20300;-19
2021/12/20 02:20:30;;;;;;;1.90;1.50;;;18.30;80.00;;;;;;5096717;28;20234;-22
2021/12/20 02:22:57;;;;;;;2.43;1.30;;;18.30;79.80;;;;;;5115661;28;20570;-20
2021/12/20 02:25:24;;;;;;;1.93;1.47;;;18.30;79.50;;;;;;5097321;28;20229;-20
2021/12/20 02:27:50;;;;;;;1.53;1.17;;;18.40;80.10;;;;;;5098042;28;20215;-24
2021/12/20 02:30:40;;;;;;;1.83;1.20;;;18.40;79.00;;;;;;5115504;28;20208;-22
2021/12/20 02:38:40;;;;;;;3.03;1.50;;;18.50;78.20;;;;;;5086343;28;20205;-23
2021/12/20 02:41:11;;;;;;;1.67;1.27;;;18.50;77.60;;;;;;5115742;28;20196;-23
2021/12/20 02:43:41;;;;;;;1.63;1.20;;;18.60;77.00;;;;;;5097667;28;20208;-18
2021/12/20 02:49:16;;;;;;;2.40;1.43;;;18.60;75.70;;;;;;5115128;28;20174;-18
2021/12/20 02:51:43;;;;;;;2.23;1.30;;;18.60;75.30;;;;;;5080079;28;20208;-19
2021/12/20 02:54:11;;;;;;;2.27;1.30;;;18.60;75.30;;;;;;5097383;28;20613;-22
2021/12/20 02:56:39;;;;;;;2.23;1.20;;;18.60;75.10;;;;;;5115283;28;20551;-19
2021/12/20 02:59:06;;;;;;;2.13;1.40;;;18.60;75.20;;;;;;5115539;28;20204;-22
2021/12/20 03:01:33;;;;;;;2.67;1.23;;;18.60;75.10;;;;;;5115445;28;20200;-22
2021/12/20 03:04:00;;;;;;;2.33;1.37;;;18.60;75.10;;;;;;5114971;28;20547;-19
2021/12/20 03:06:39;;;;;;;3.07;1.40;;;18.60;74.80;;;;;;5114887;28;20594;-24
2021/12/20 03:09:06;;;;;;;2.37;1.33;;;18.60;74.60;;;;;;5097214;28;20324;-21
2021/12/20 03:11:34;;;;;;;2.43;1.40;;;18.60;74.50;;;;;;5097822;28;20217;-20
2021/12/20 03:17:00;;;;;;;2.00;1.40;;;18.60;74.20;;;;;;5069946;28;20480;-19
2021/12/20 03:19:27;;;;;;;2.33;1.50;;;18.60;74.20;;;;;;5097728;28;20191;-19
2021/12/20 03:21:53;;;;;;;1.93;1.30;;;18.60;74.30;;;;;;5114382;28;20273;-20
2021/12/20 03:24:18;;;;;;;2.60;1.60;;;18.60;74.30;;;;;;5115340;28;20205;-20
2021/12/20 03:26:44;;;;;;;1.47;1.37;;;18.60;74.50;;;;;;5114096;28;20225;-19
2021/12/20 03:29:10;;;;;;;1.80;1.10;;;18.60;74.50;;;;;;5096707;28;20572;-22
2021/12/20 03:31:36;;;;;;;1.93;1.20;;;18.50;74.20;;;;;;5097347;28;20213;-20
2021/12/20 03:34:03;;;;;;;1.53;1.10;;;18.50;74.20;;;;;;5097888;28;20188;-21
2021/12/20 03:36:29;;;;;;;1.37;1.10;;;18.50;74.20;;;;;;5096728;28;20200;-21
2021/12/20 03:38:55;;;;;;;3.50;1.10;;;18.50;74.40;;;;;;5115266;28;20466;-21
2021/12/20 03:41:21;;;;;;;2.93;1.30;;;18.40;74.60;;;;;;5097332;28;20200;-20
2021/12/20 03:43:47;;;;;;;2.40;1.37;;;18.40;75.30;;;;;;5114865;28;20198;-18
2021/12/20 03:46:13;;;;;;;1.97;1.20;;;18.30;75.20;;;;;;5115634;28;20389;-22
2021/12/20 03:48:38;;;;;;;1.97;1.27;;;18.30;75.50;;;;;;5114392;28;20260;-18
2021/12/20 03:51:05;;;;;;;2.00;1.20;;;18.30;75.80;;;;;;5096665;28;20555;-19
2021/12/20 03:53:33;;;;;;;2.20;1.40;;;18.20;76.00;;;;;;5115019;28;20283;-19
2021/12/20 03:55:59;;;;;;;1.80;1.17;;;18.20;76.20;;;;;;5114992;28;20525;-21
2021/12/20 03:58:27;;;;;;;1.70;1.30;;;18.20;76.40;;;;;;5114839;28;20227;-21
2021/12/20 04:00:55;;;;;;;2.17;1.30;;;18.10;76.50;;;;;;5096894;28;20193;-22
2021/12/20 04:03:20;;;;;;;1.60;1.20;;;18.10;76.60;;;;;;5115153;28;20208;-22
2021/12/20 04:05:46;;;;;;;1.77;1.30;;;18.10;76.80;;;;;;5114727;28;20219;-20
2021/12/20 04:08:12;;;;;;;1.43;1.10;;;18.10;77.00;;;;;;5096802;28;20446;-20
2021/12/20 04:10:38;;;;;;;1.20;1.10;;;20.30;63.40;;;;;;5114091;28;20269;-20
2021/12/20 04:13:03;;;;;;;2.17;1.53;;;22.40;54.70;;;;;;5113608;28;20205;-21
2021/12/20 04:15:29;;;;;;;1.57;1.20;;;22.70;52.80;;;;;;5114350;28;20200;-19
2021/12/20 04:17:55;;;;;;;1.73;1.10;;;22.90;52.00;;;;;;5096685;28;20259;-26
2021/12/20 04:20:21;;;;;;;2.07;1.30;;;23.20;51.40;;;;;;5096395;28;20252;-20
2021/12/20 04:22:47;;;;;;;1.33;0.93;;;23.60;50.60;;;;;;5096843;28;20210;-25
2021/12/20 04:25:12;;;;;;;1.77;1.07;;;24.10;49.80;;;;;;5114645;28;20256;-20
2021/12/20 04:27:38;;;;;;;2.70;1.23;;;24.50;49.10;;;;;;5095885;28;20294;-18
2021/12/20 04:30:10;;;;;;;1.50;1.00;;;24.60;48.70;;;;;;5096369;28;20194;-22
2021/12/20 04:32:43;;;;;;;1.50;1.10;;;24.50;48.50;;;;;;5114667;28;20227;-19
2021/12/20 04:35:11;;;;;;;2.37;1.17;;;24.60;48.40;;;;;;5113930;28;20331;-22
2021/12/20 04:37:41;;;;;;;1.73;1.20;;;24.70;48.20;;;;;;5113195;28;20217;-21
2021/12/20 04:40:10;;;;;;;1.30;1.00;;;24.90;47.90;;;;;;5113551;28;20195;-22
2021/12/20 04:42:36;;;;;;;2.00;1.20;;;25.10;47.70;;;;;;5113243;28;20339;-22
2021/12/20 04:45:02;;;;;;;1.83;1.13;;;25.20;47.50;;;;;;5113011;28;20206;-24
2021/12/20 04:47:28;;;;;;;1.60;1.20;;;25.20;47.40;;;;;;5097812;28;20233;-22
2021/12/20 04:49:53;;;;;;;1.57;1.13;;;25.20;47.40;;;;;;5099131;28;20232;-22
2021/12/20 04:52:19;;;;;;;1.47;1.10;;;25.10;47.30;;;;;;5117397;28;20229;-21
2021/12/20 04:54:44;;;;;;;1.87;1.17;;;25.00;47.50;;;;;;5116945;28;20271;-21
2021/12/20 04:57:10;;;;;;;2.33;1.27;;;24.70;47.70;;;;;;5116149;28;20541;-19
2021/12/20 04:59:36;;;;;;;1.40;1.10;;;24.40;48.00;;;;;;5116747;28;20174;-20
2021/12/20 05:02:02;;;;;;;2.30;1.13;;;24.30;48.30;;;;;;5116992;28;20174;-21
2021/12/20 05:04:28;;;;;;;2.07;1.27;;;24.00;48.50;;;;;;5098408;28;20205;-22
2021/12/20 05:06:54;;;;;;;2.17;1.00;;;23.80;48.90;;;;;;5116204;28;20502;-21
2021/12/20 05:09:20;;;;;;;1.80;1.17;;;23.70;49.10;;;;;;5116754;28;20521;-18
2021/12/20 05:11:50;;;;;;;1.10;0.97;;;23.50;49.40;;;;;;5098697;28;20347;-18
2021/12/20 05:14:19;;;;;;;1.40;1.10;;;23.30;49.70;;;;;;5099163;28;20201;-21
2021/12/20 05:16:45;;;;;;;1.93;1.10;;;23.10;50.10;;;;;;5097609;28;20197;-21
2021/12/20 05:19:10;;;;;;;2.20;1.03;;;22.80;50.50;;;;;;5115508;28;20202;-21
2021/12/20 05:21:36;;;;;;;2.87;1.07;;;22.60;51.00;;;;;;5116229;28;20182;-21
2021/12/20 05:24:02;;;;;;;1.40;1.10;;;22.40;51.30;;;;;;5098013;28;20587;-21
2021/12/20 05:26:27;;;;;;;1.80;1.20;;;22.20;51.70;;;;;;5115432;28;20259;-19
2021/12/20 05:28:55;;;;;;;2.30;1.50;;;21.90;52.30;;;;;;5097340;28;20593;-20
2021/12/20 05:31:21;;;;;;;1.90;1.20;;;21.70;52.90;;;;;;5098012;28;20189;-22
2021/12/20 05:33:47;;;;;;;2.70;1.30;;;21.60;53.30;;;;;;5116215;28;20504;-21
2021/12/20 05:36:12;;;;;;;3.17;1.20;;;21.50;53.70;;;;;;5097800;28;20215;-20
2021/12/20 05:38:38;;;;;;;1.90;1.13;;;21.20;54.30;;;;;;5115654;28;20232;-20
2021/12/20 05:41:04;;;;;;;2.30;1.40;;;21.20;54.80;;;;;;5114969;28;20229;-19
2021/12/20 05:43:30;;;;;;;2.00;1.20;;;21.00;55.30;;;;;;5096808;28;20216;-21
2021/12/20 05:45:55;;;;;;;2.20;1.30;;;20.70;56.10;;;;;;5114485;28;20279;-19
2021/12/20 05:48:21;;;;;;;2.30;1.20;;;20.50;57.10;;;;;;5097263;28;20195;-19
2021/12/20 05:50:47;;;;;;;1.23;1.10;;;20.30;57.90;;;;;;5114962;28;20216;-20
2021/12/20 05:53:12;;;;;;;1.80;1.10;;;20.60;57.50;;;;;;5097123;28;20190;-18
2021/12/20 05:55:38;;;;;;;1.63;1.10;;;21.10;56.30;;;;;;5113913;28;20290;-21
2021/12/20 05:58:03;;;;;;;2.53;1.10;;;21.80;54.60;;;;;;5112232;28;20313;-18
2021/12/20 06:00:29;;;;;;;3.33;1.37;;;22.70;52.80;;;;;;5113545;28;20188;-21
2021/12/20 06:02:55;;;;;;;2.30;1.20;;;23.50;51.10;;;;;;5113489;28;20283;-21
2021/12/20 06:05:21;;;;;;;4.50;1.10;;;24.10;49.80;;;;;;5112709;28;20228;-21
2021/12/20 06:07:47;;;;;;;3.33;1.40;;;24.80;48.70;;;;;;5112350;28;20694;-20
2021/12/20 06:10:15;;;;;;;2.23;1.30;;;25.30;47.70;;;;;;5103335;28;20340;-23
2021/12/20 06:12:42;;;;;;;2.77;1.37;;;25.50;47.30;;;;;;5074124;28;20270;-20
2021/12/20 06:15:08;;;;;;;2.87;1.10;;;25.50;47.10;;;;;;5091479;28;20517;-22
2021/12/20 06:17:35;;;;;;;2.80;1.30;;;25.40;46.90;;;;;;5091941;28;20312;-21
2021/12/20 06:20:04;;;;;;;3.37;1.50;;;25.40;47.00;;;;;;5090386;28;20186;-23
2021/12/20 06:22:29;;;;;;;3.60;1.40;;;25.10;47.00;;;;;;5090708;28;20597;-20
2021/12/20 06:24:55;;;;;;;2.03;1.27;;;24.90;47.30;;;;;;5073223;28;20214;-18
2021/12/20 06:27:20;;;;;;;2.57;1.23;;;24.60;47.50;;;;;;5072148;28;20239;-24
2021/12/20 06:29:46;;;;;;;2.77;1.30;;;24.40;47.90;;;;;;5090428;28;20228;-21
2021/12/20 06:32:12;;;;;;;2.87;1.30;;;24.10;48.30;;;;;;5071997;28;20277;-21
2021/12/20 06:34:39;;;;;;;2.37;1.20;;;23.90;48.70;;;;;;5090298;28;20194;-19
2021/12/20 06:37:05;;;;;;;4.80;1.77;;;23.50;49.00;;;;;;5089634;28;20193;-23
2021/12/20 06:39:31;;;;;;;2.43;1.30;;;23.20;49.60;;;;;;5089199;28;20494;-21
2021/12/20 06:41:58;;;;;;;2.60;1.40;;;22.90;50.00;;;;;;5089810;28;20269;-22
2021/12/20 06:44:24;;;;;;;4.40;1.43;;;22.60;50.60;;;;;;5089785;28;20254;-19
2021/12/20 06:46:50;;;;;;;2.70;1.60;;;22.30;51.20;;;;;;5071028;28;20229;-21
2021/12/20 06:49:16;;;;;;;3.97;1.60;;;22.00;51.80;;;;;;5073445;28;20210;-20
2021/12/20 06:51:43;;;;;;;3.20;1.53;;;21.90;52.50;;;;;;5104227;28;20202;-20
2021/12/20 06:54:16;;;;;;;3.80;1.70;;;21.60;53.10;;;;;;5115325;28;20247;-20
2021/12/20 06:56:43;;;;;;;2.73;1.20;;;21.40;53.90;;;;;;5115308;28;20199;-20
2021/12/20 06:59:09;;;;;;;3.10;1.50;;;21.20;54.50;;;;;;5098160;28;20189;-19
2021/12/20 07:01:35;;;;;;;3.93;1.57;;;20.90;55.30;;;;;;5097871;28;20635;-21
2021/12/20 07:04:02;;;;;;;3.23;1.70;;;20.70;56.10;;;;;;5097739;28;20643;-22
2021/12/20 07:06:28;;;;;;;3.60;1.40;;;20.70;56.70;;;;;;5098206;28;20220;-18
2021/12/20 07:08:54;;;;;;;5.13;1.83;;;20.80;56.30;;;;;;5097056;28;20211;-20
2021/12/20 07:11:20;;;;;;;5.33;2.00;;;21.00;56.30;;;;;;5115736;28;20203;-21
2021/12/20 07:13:46;;;;;;;2.70;1.50;;;21.20;55.30;;;;;;5097551;28;20299;-23
2021/12/20 07:16:13;;;;;;;4.93;1.60;;;21.50;54.40;;;;;;5097300;28;20250;-21
2021/12/20 07:18:39;;;;;;;5.17;1.63;;;22.10;53.20;;;;;;5115758;28;20761;-19
2021/12/20 07:21:05;;;;;;;4.30;1.70;;;22.50;52.10;;;;;;5115297;28;20200;-18
2021/12/20 07:23:30;;;;;;;7.03;2.00;;;23.00;51.20;;;;;;5116269;28;20283;-21
2021/12/20 07:25:56;;;;;;;3.00;1.60;;;23.50;50.30;;;;;;5115236;28;20219;-20
2021/12/20 07:28:22;;;;;;;4.97;2.20;;;23.90;49.50;;;;;;5097873;28;20204;-19
2021/12/20 07:30:49;;;;;;;5.37;1.73;;;24.20;48.90;;;;;;5098246;28;20274;-20
2021/12/20 07:33:15;;;;;;;4.47;2.23;;;24.60;48.20;;;;;;5115593;28;20478;-23
2021/12/20 07:35:45;;;;;;;4.27;2.00;;;24.80;47.80;;;;;;5115801;28;20182;-23
2021/12/20 07:38:12;;;;;;;3.73;1.80;;;24.90;47.50;;;;;;5096875;28;20603;-22
2021/12/20 07:40:42;;;;;;;6.53;2.07;;;24.90;47.50;;;;;;5114507;28;20678;-21
2021/12/20 07:43:08;;;;;;;6.00;1.90;;;24.70;47.60;;;;;;5096801;28;20229;-23
2021/12/20 07:45:33;;;;;;;4.43;1.97;;;24.40;47.90;;;;;;5114646;28;20264;-18
2021/12/20 07:47:59;;;;;;;4.70;1.83;;;24.10;48.10;;;;;;5114889;28;20261;-23
2021/12/20 07:50:25;;;;;;;4.00;1.97;;;23.80;48.50;;;;;;5114995;28;20189;-20
2021/12/20 07:52:51;;;;;;;4.47;1.83;;;23.60;48.80;;;;;;5114906;28;20188;-20
2021/12/20 07:55:19;;;;;;;5.23;2.17;;;23.40;49.20;;;;;;5114599;28;20587;-18
2021/12/20 07:57:45;;;;;;;4.30;2.07;;;23.20;49.60;;;;;;5114430;28;20192;-20
2021/12/20 08:00:12;;;;;;;6.30;1.80;;;22.90;50.00;;;;;;5096910;28;20198;-21
2021/12/20 08:02:39;;;;;;;5.30;2.20;;;22.60;50.50;;;;;;5097062;28;20601;-19
2021/12/20 08:05:06;;;;;;;5.57;2.30;;;22.30;50.90;;;;;;5095529;28;20210;-20
2021/12/20 08:07:31;;;;;;;4.10;1.90;;;22.10;51.40;;;;;;5114823;28;20238;-22
2021/12/20 08:09:58;;;;;;;4.23;1.90;;;21.90;51.90;;;;;;5114353;28;20193;-19
2021/12/20 08:12:23;;;;;;;5.70;1.90;;;21.60;52.50;;;;;;5114292;28;20205;-19
2021/12/20 08:14:49;;;;;;;4.87;1.97;;;21.30;53.10;;;;;;5096596;28;20194;-21
2021/12/20 08:17:14;;;;;;;3.27;1.80;;;21.20;53.80;;;;;;5113916;28;20266;-20
2021/12/20 08:19:40;;;;;;;3.97;2.00;;;21.00;54.40;;;;;;5114161;28;20193;-25
2021/12/20 08:22:06;;;;;;;5.70;1.97;;;20.70;55.10;;;;;;5098465;28;20195;-22
2021/12/20 08:24:32;;;;;;;6.20;2.00;;;20.90;55.10;;;;;;5118013;28;20186;-22
2021/12/20 08:26:58;;;;;;;3.50;1.80;;;21.10;54.80;;;;;;5098888;28;20367;-23
2021/12/20 08:29:24;;;;;;;4.17;1.77;;;21.30;54.10;;;;;;5117460;28;20186;-22
2021/12/20 08:31:50;;;;;;;5.97;2.07;;;21.80;52.90;;;;;;5098657;28;20200;-25
2021/12/20 08:34:17;;;;;;;4.30;1.93;;;22.50;51.70;;;;;;5100085;28;20196;-21
2021/12/20 08:36:43;;;;;;;4.10;1.77;;;23.10;50.60;;;;;;5100323;28;20183;-24
2021/12/20 08:39:09;;;;;;;5.13;2.17;;;24.10;49.20;;;;;;5099605;28;20208;-23
2021/12/20 08:41:35;;;;;;;4.77;1.93;;;24.80;47.80;;;;;;5117704;28;20258;-23
2021/12/20 08:44:01;;;;;;;7.70;2.20;;;25.10;47.00;;;;;;5099611;28;20206;-20
2021/12/20 08:46:26;;;;;;;3.87;1.80;;;25.30;46.60;;;;;;5117669;28;20288;-21
2021/12/20 08:48:56;;;;;;;3.90;1.97;;;25.20;46.40;;;;;;5118141;28;20279;-22
2021/12/20 08:51:22;;;;;;;3.60;2.20;;;25.20;46.40;;;;;;5100118;28;20174;-24
2021/12/20 08:53:47;;;;;;;5.97;2.30;;;25.20;46.30;;;;;;5099659;28;20204;-22
2021/12/20 08:56:13;;;;;;;4.23;2.20;;;25.10;46.30;;;;;;5082846;28;20534;-23
2021/12/20 08:58:44;;;;;;;5.10;2.10;;;25.00;46.40;;;;;;5099229;28;20198;-23
2021/12/20 09:01:12;;;;;;;4.07;2.00;;;24.80;46.50;;;;;;5118010;28;20193;-22
2021/12/20 09:03:38;;;;;;;3.53;2.03;;;24.50;46.80;;;;;;5100435;28;20204;-22
2021/12/20 09:06:09;;;;;;;3.10;1.90;;;24.30;47.10;;;;;;5117440;28;20578;-20
2021/12/20 09:08:35;;;;;;;4.37;1.80;;;24.10;47.80;;;;;;5117539;28;20200;-19
2021/12/20 09:11:00;;;;;;;4.17;2.03;;;23.80;47.60;;;;;;5099449;28;20199;-19
2021/12/20 09:13:26;;;;;;;6.00;1.97;;;23.70;47.90;;;;;;5099025;28;20266;-19
2021/12/20 09:15:55;;;;;;;3.97;2.23;;;23.40;48.20;;;;;;5098823;28;20200;-19
2021/12/20 09:18:20;;;;;;;5.17;1.93;;;23.20;48.50;;;;;;5116493;28;20206;-19
2021/12/20 09:20:46;;;;;;;3.63;1.80;;;23.00;48.80;;;;;;5099295;28;20656;-20
2021/12/20 09:23:13;;;;;;;4.13;2.00;;;22.80;49.10;;;;;;5117370;28;20186;-18
2021/12/20 09:25:43;;;;;;;4.23;2.07;;;22.60;49.50;;;;;;5116829;28;20210;-20
2021/12/20 09:28:13;;;;;;;2.90;2.07;;;22.50;49.80;;;;;;5117274;28;20270;-20
2021/12/20 09:30:42;;;;;;;4.20;2.20;;;22.30;50.20;;;;;;5117590;28;20284;-19
2021/12/20 09:33:08;;;;;;;4.07;2.17;;;22.00;50.70;;;;;;5117298;28;20204;-20
2021/12/20 09:35:34;;;;;;;4.80;2.60;;;21.80;51.10;;;;;;5100153;28;20232;-21
2021/12/20 09:38:01;;;;;;;4.57;2.70;;;21.90;51.20;;;;;;5116949;28;20201;-18
2021/12/20 09:40:36;;;;;;;6.07;2.40;;;22.10;51.00;;;;;;5098897;28;20697;-19
2021/12/20 09:43:05;;;;;;;4.73;2.53;;;22.40;50.50;;;;;;5117520;28;20192;-18
2021/12/20 09:45:32;;;;;;;5.87;2.80;;;22.90;49.60;;;;;;5116672;28;20302;-19
2021/12/20 09:47:58;;;;;;;5.90;2.90;;;23.50;48.50;;;;;;5116148;28;20190;-20
2021/12/20 09:50:26;;;;;;;6.37;2.60;;;24.20;47.60;;;;;;5116088;28;20194;-19
2021/12/20 09:52:52;;;;;;;6.83;2.87;;;24.70;46.70;;;;;;5116705;28;20190;-22
2021/12/20 09:55:19;;;;;;;7.73;3.17;;;25.20;45.90;;;;;;5098767;28;20201;-19
2021/12/20 09:57:47;;;;;;;6.40;3.50;;;25.60;45.30;;;;;;5098583;28;20499;-18
2021/12/20 10:00:16;;;;;;;6.47;3.20;;;25.80;44.70;;;;;;5116539;28;20579;-21
2021/12/20 10:02:46;;;;;;;6.40;3.30;;;26.00;44.40;;;;;;5116595;28;20201;-19
2021/12/20 10:05:14;;;;;;;6.20;3.33;;;26.00;44.20;;;;;;5098707;28;20636;-18
2021/12/20 10:07:42;;;;;;;5.40;3.10;;;26.00;44.20;;;;;;5115838;28;20221;-18
2021/12/20 10:10:10;;;;;;;7.03;3.20;;;25.80;44.20;;;;;;5115959;28;20174;-19
2021/12/20 10:12:46;;;;;;;6.87;3.23;;;25.50;44.30;;;;;;5098023;28;20280;-19
2021/12/20 10:15:15;;;;;;;9.57;3.40;;;25.10;44.50;;;;;;5114979;28;20204;-20
2021/12/20 10:17:59;;;;;;;7.47;3.30;;;24.70;44.70;;;;;;5097328;28;20555;-22
2021/12/20 10:20:27;;;;;;;7.17;3.23;;;24.30;45.00;;;;;;5097384;28;20197;-22
2021/12/20 10:23:07;;;;;;;8.60;3.70;;;24.00;45.50;;;;;;5115701;28;20653;-21
2021/12/20 10:25:34;;;;;;;7.20;3.30;;;23.70;45.80;;;;;;5115219;28;20221;-23
2021/12/20 10:28:34;;;;;;;7.97;3.40;;;23.40;46.20;;;;;;5097816;28;20216;-21
2021/12/20 10:31:06;;;;;;;6.57;3.40;;;23.10;46.60;;;;;;5097886;28;20257;-22
2021/12/20 10:33:32;;;;;;;8.03;3.50;;;22.80;46.90;;;;;;5097938;28;20195;-23
2021/12/20 10:36:05;;;;;;;6.67;3.10;;;22.50;47.20;;;;;;5115772;28;20277;-23
2021/12/20 10:38:45;;;;;;;6.80;3.47;;;22.30;47.50;;;;;;5091859;28;20591;-21
2021/12/20 10:41:27;;;;;;;7.10;3.60;;;22.00;47.90;;;;;;5098222;28;20199;-22
2021/12/20 10:43:59;;;;;;;6.30;3.17;;;21.90;48.20;;;;;;5114684;28;20257;-26
2021/12/20 10:46:30;;;;;;;9.70;3.77;;;21.90;48.20;;;;;;5097911;28;20214;-22
2021/12/20 10:49:07;;;;;;;5.40;3.20;;;22.10;48.10;;;;;;5097852;28;20611;-20
2021/12/20 10:51:41;;;;;;;6.30;3.27;;;22.40;47.90;;;;;;5115746;28;20200;-22
2021/12/20 10:54:13;;;;;;;6.23;3.30;;;22.90;47.40;;;;;;5115677;28;20277;-22
2021/12/20 10:57:02;;;;;;;7.17;3.20;;;23.40;46.60;;;;;;5097002;28;20655;-20
2021/12/20 10:59:31;;;;;;;6.70;3.17;;;24.30;45.70;;;;;;5115992;28;20563;-22
2021/12/20 11:03:09;;;;;;;6.93;3.00;;;25.00;44.80;;;;;;5096595;28;20185;-22
2021/12/20 11:05:02;;;;;;;8.47;3.07;;;25.40;44.20;;;;;;5114484;28;20296;-24
2021/12/20 11:10:04;;;;;;;5.33;2.83;;;25.90;43.50;;;;;;5113907;28;20573;-21
2021/12/20 11:12:32;;;;;;;7.87;3.10;;;26.10;43.30;;;;;;5113909;28;20196;-21
2021/12/20 11:15:01;;;;;;;5.63;2.70;;;26.10;43.10;;;;;;5096508;28;20192;-23
2021/12/20 11:17:28;;;;;;;7.00;3.10;;;25.90;43.10;;;;;;5096077;28;20601;-23
2021/12/20 11:19:56;;;;;;;5.43;3.07;;;25.70;43.20;;;;;;5114703;28;20180;-24
2021/12/20 11:22:25;;;;;;;7.93;3.03;;;25.50;43.30;;;;;;5115254;28;20188;-19
2021/12/20 11:24:51;;;;;;;6.97;3.13;;;25.20;43.60;;;;;;5114613;28;20192;-22
2021/12/20 11:27:24;;;;;;;7.60;2.90;;;25.00;43.80;;;;;;5096722;28;20212;-21
2021/12/20 11:29:54;;;;;;;6.40;2.90;;;24.70;44.10;;;;;;5113495;28;20226;-21
2021/12/20 11:32:22;;;;;;;6.67;2.87;;;24.50;44.40;;;;;;5096377;28;20198;-22
2021/12/20 11:34:48;;;;;;;6.73;2.90;;;24.10;44.70;;;;;;5114871;28;20594;-21
2021/12/20 11:37:17;;;;;;;6.63;3.03;;;23.80;45.00;;;;;;5115217;28;20197;-23
2021/12/20 11:39:44;;;;;;;8.07;2.73;;;23.50;45.40;;;;;;5097259;28;20198;-22
2021/12/20 11:42:12;;;;;;;6.33;3.03;;;23.20;45.70;;;;;;5096955;28;20202;-20
2021/12/20 11:44:39;;;;;;;6.23;3.00;;;23.00;46.10;;;;;;5096902;28;20204;-21
2021/12/20 11:47:10;;;;;;;6.27;3.03;;;22.80;46.40;;;;;;5114455;28;20216;-22
2021/12/20 11:49:37;;;;;;;6.80;3.10;;;22.60;46.70;;;;;;5114839;28;20197;-22
2021/12/20 11:52:06;;;;;;;6.47;3.13;;;22.40;46.90;;;;;;5114160;28;20221;-23
2021/12/20 11:54:39;;;;;;;5.97;2.57;;;22.20;47.20;;;;;;5095776;28;20197;-22
2021/12/20 11:57:07;;;;;;;7.63;3.10;;;22.10;47.30;;;;;;5115012;28;20573;-17
2021/12/20 11:59:50;;;;;;;9.03;2.77;;;22.10;47.50;;;;;;5099685;28;20189;-19
2021/12/20 12:02:31;;;;;;;8.30;2.80;;;22.20;47.40;;;;;;5099418;28;20601;-18
2021/12/20 12:05:10;;;;;;;8.93;3.17;;;22.40;47.10;;;;;;5118118;28;20215;-19
2021/12/20 12:07:38;;;;;;;7.57;3.10;;;22.70;46.90;;;;;;5117173;28;20204;-20
2021/12/20 12:10:07;;;;;;;5.93;2.70;;;22.90;46.60;;;;;;5116758;28;20197;-20
2021/12/20 12:12:40;;;;;;;7.93;2.83;;;23.20;46.20;;;;;;5099343;28;20435;-19
2021/12/20 12:15:14;;;;;;;6.20;2.90;;;23.50;45.80;;;;;;5099011;28;20291;-20
2021/12/20 12:17:50;;;;;;;4.17;2.20;;;23.50;45.50;;;;;;5117280;28;20224;-19
2021/12/20 12:20:35;;;;;;;7.37;2.80;;;23.40;45.50;;;;;;5116853;28;20198;-20
2021/12/20 12:23:17;;;;;;;5.30;2.80;;;23.10;45.70;;;;;;5098363;28;20174;-20
2021/12/20 12:25:59;;;;;;;5.77;2.70;;;22.80;45.80;;;;;;5117797;28;20220;-19
2021/12/20 12:28:27;;;;;;;6.80;2.97;;;22.50;46.20;;;;;;5103163;28;20201;-20
2021/12/20 12:31:07;;;;;;;6.80;2.50;;;22.30;46.50;;;;;;5078077;28;20750;-18
2021/12/20 12:33:36;;;;;;;5.53;2.47;;;22.20;46.50;;;;;;5097220;28;20186;-18
2021/12/20 12:36:08;;;;;;;6.03;2.57;;;22.50;46.30;;;;;;5098772;28;20658;-18
2021/12/20 12:38:57;;;;;;;5.90;2.40;;;22.90;45.80;;;;;;5117401;28;20195;-18
2021/12/20 12:41:31;;;;;;;5.97;2.63;;;23.60;45.10;;;;;;5117290;28;20217;-18
2021/12/20 12:44:02;;;;;;;7.33;2.57;;;24.60;44.20;;;;;;5111633;28;20559;-20
2021/12/20 12:46:42;;;;;;;5.90;2.10;;;25.10;43.10;;;;;;5109468;28;20598;-18
2021/12/20 12:49:23;;;;;;;4.57;2.30;;;25.40;42.60;;;;;;5091291;28;20287;-18
2021/12/20 12:52:06;;;;;;;6.07;2.50;;;25.50;42.50;;;;;;5110120;28;20532;-18
2021/12/20 12:54:44;;;;;;;4.43;2.07;;;25.70;42.30;;;;;;5110110;28;20170;-20
2021/12/20 12:57:13;;;;;;;4.10;2.17;;;25.70;42.10;;;;;;5109595;28;20190;-17
2021/12/20 12:59:45;;;;;;;3.57;2.20;;;25.80;42.10;;;;;;5108777;28;20458;-21
2021/12/20 13:02:19;;;;;;;4.20;2.17;;;25.70;42.00;;;;;;5091635;28;20198;-19
2021/12/20 13:04:47;;;;;;;4.57;2.30;;;25.60;42.00;;;;;;5109091;28;20381;-18
2021/12/20 13:07:17;;;;;;;6.63;2.20;;;25.40;42.10;;;;;;5109384;28;20218;-18
2021/12/20 13:09:45;;;;;;;3.80;2.00;;;25.10;42.20;;;;;;5109915;28;20284;-18
2021/12/20 13:12:17;;;;;;;2.93;1.90;;;24.90;42.50;;;;;;5110027;28;20194;-19
2021/12/20 13:14:51;;;;;;;3.13;1.80;;;24.50;42.70;;;;;;5110187;28;20162;-20